Bayard, IA (50029)

3:09 PM CDT on July 30, 2014 (GMT -0500)
TempletonFF (KIATEMPL2) Elev 1385 ft | 41.87 °N, 94.90 °W | Change Station

Current weather conditions updated 6 minutes ago

Partly Cloudy
Partly Cloudy
77.3 °F
Feels Like 79 °F
N
2.0
Wind Variable Wind from North
Gusts 8.0 mph

Today is forecast to be nearly the same temperature as yesterday. Isolated thunderstorms tomorrow night.

Today
High -- | Low -- °F
--% Chance of Precip.
Yesterday
High -- | Low -- °F
Precip. -- in
6:10 AM 8:38 PM
Waxing Crescent, 13% visible
Pressure 30.12 in
Visibility 10.0 miles
Clouds Few 6000 ft
Heat Index 79 °F
Dew Point 55 °F
Humidity 47%
Rainfall 0.00 in
Snow Depth Not available.
UV 9 out of 12
Pollen 7.10 out of 12
Air Quality Not available.
Flu Activity Not available.
METAR KCIN 301955Z AUTO VRB04G10KT 10SM FEW060 25/12 A3012 RMK AO2

More Conditions Fewer Conditions

Pressure 30.12 in
Visibility 10.0 miles
Clouds Few 6000 ft
Heat Index 79 °F
Dew Point 55 °F
Humidity 47%
Rainfall 0.00 in
Snow Depth Not available.
UV 9 out of 12
Pollen 7.10 out of 12
Air Quality Not available.
Flu Activity Not available.
METAR KCIN 301955Z AUTO VRB04G10KT 10SM FEW060 25/12 A3012 RMK AO2

More Conditions Fewer Conditions

10-Day Weather Forecast

Almanac

Astronomy

Jul. 30, 2014 Rise Set
Actual Time 6:10 AM CDT 8:38 PM CDT
Civil Twilight 5:38 AM CDT 9:10 PM CDT
Nautical Twilight 4:59 AM CDT 9:49 PM CDT
Astronomical Twilight 4:14 AM CDT 10:33 PM CDT
Moon 9:46 AM CDT 10:17 PM CDT
Length of Visible Light 15h 31m
Length of Day
14h 28m
Tomorrow will be 2m 5s shorter.
Waxing Crescent, 13% of the Moon is Illuminated
Today
Waxing Crescent
Aug 3
First Quarter
Aug 10
Full
Aug 17
Last Quarter
Aug 25
New

Today's Extremes

State Highs State Lows

Community

WunderPhotos

Upload Photos

1,739,170 photos uploaded!

WunderBlogs® & News

Nearby

Snow Depth

Station Depth Elevation
No new snow has been reported.

Earthquake Activity

City Distance Mag. Time & Date
No recent earthquake activity has been reported nearby.
Minimum magnitude displayed is 2.5.

Coastal Water Temperatures

Place Temperature
No Stations Reporting

Nearby Weather Stations

Station Location Temp. Heat Index Dew Point Humidity Wind Precip. Elev Updated Type
MesoWest SCRAN1 , Scranton, IA 76 °F 74 °F - - North  at  - 0.00 in / hr 1182 ft 12:15 PM CDT MADIS
TempletonFF, Templeton, IA 77.3 °F 79 °F 55 °F 47% North  at  2.0 mph 0.00 in / hr 1385 ft 3:03 PM CDT Normal
Herbers Seed, Audubon, IA 74.1 °F 77 °F 56 °F 53% North  at  0.0 mph - / hr 1385 ft 3:00 PM CDT Normal
Chambers House, Audubon, IA 74.6 °F 77 °F 57 °F 55% NW  at  3.0 mph 0.00 in / hr 1440 ft 3:05 PM CDT Normal
Natural Fertilizer Services - Eagle Acre, Audubon, IA 76.7 °F 78 °F 56 °F 49% NNE  at  5.0 mph 0.00 in / hr 1424 ft 3:00 PM CDT Normal

Show More Stations Show Fewer Stations